sensor_id;sensor_type;location;lat;lon;timestamp;pressure;altitude;pressure_sealevel;temperature;humidity
2675;BME280;1347;42.122;24.746;2023-01-29T00:01:32;99714.69;;;4.05;76.53
2675;BME280;1347;42.122;24.746;2023-01-29T00:03:59;99712.59;;;4.02;76.42
2675;BME280;1347;42.122;24.746;2023-01-29T00:06:27;99713.88;;;4.05;75.93
2675;BME280;1347;42.122;24.746;2023-01-29T00:08:55;99717.84;;;4.07;75.87
2675;BME280;1347;42.122;24.746;2023-01-29T00:11:22;99714.00;;;4.08;76.33
2675;BME280;1347;42.122;24.746;2023-01-29T00:13:50;99721.69;;;4.15;75.98
2675;BME280;1347;42.122;24.746;2023-01-29T00:16:17;99720.88;;;4.15;76.13
2675;BME280;1347;42.122;24.746;2023-01-29T00:18:44;99721.97;;;4.22;76.08
2675;BME280;1347;42.122;24.746;2023-01-29T00:21:11;99725.00;;;4.21;76.22
2675;BME280;1347;42.122;24.746;2023-01-29T00:23:41;99725.31;;;4.19;76.05
2675;BME280;1347;42.122;24.746;2023-01-29T00:26:09;99733.16;;;4.12;76.11
2675;BME280;1347;42.122;24.746;2023-01-29T00:28:36;99727.91;;;4.16;76.25
2675;BME280;1347;42.122;24.746;2023-01-29T00:31:07;99732.03;;;4.13;76.15
2675;BME280;1347;42.122;24.746;2023-01-29T00:33:34;99736.81;;;4.07;76.13
2675;BME280;1347;42.122;24.746;2023-01-29T00:36:02;99734.09;;;4.07;76.36
2675;BME280;1347;42.122;24.746;2023-01-29T00:38:29;99724.84;;;4.08;76.45
2675;BME280;1347;42.122;24.746;2023-01-29T00:41:03;99735.56;;;4.05;76.32
2675;BME280;1347;42.122;24.746;2023-01-29T00:43:47;99737.50;;;4.04;76.53
2675;BME280;1347;42.122;24.746;2023-01-29T00:46:32;99732.38;;;4.03;76.38
2675;BME280;1347;42.122;24.746;2023-01-29T00:48:59;99736.38;;;4.05;76.19
2675;BME280;1347;42.122;24.746;2023-01-29T00:51:25;99738.91;;;4.02;76.31
2675;BME280;1347;42.122;24.746;2023-01-29T00:53:52;99734.44;;;3.97;76.08
2675;BME280;1347;42.122;24.746;2023-01-29T00:56:29;99735.59;;;3.96;76.31
2675;BME280;1347;42.122;24.746;2023-01-29T00:58:56;99732.69;;;3.93;76.12
2675;BME280;1347;42.122;24.746;2023-01-29T01:01:23;99734.13;;;3.90;76.32
2675;BME280;1347;42.122;24.746;2023-01-29T01:04:03;99738.94;;;3.93;76.56
2675;BME280;1347;42.122;24.746;2023-01-29T01:06:30;99736.69;;;3.87;76.62
2675;BME280;1347;42.122;24.746;2023-01-29T01:08:57;99744.66;;;3.83;76.72
2675;BME280;1347;42.122;24.746;2023-01-29T01:11:43;99737.66;;;3.82;77.12
2675;BME280;1347;42.122;24.746;2023-01-29T01:14:09;99732.84;;;3.79;77.02
2675;BME280;1347;42.122;24.746;2023-01-29T01:16:36;99735.09;;;3.77;77.11
2675;BME280;1347;42.122;24.746;2023-01-29T01:19:03;99741.66;;;3.76;77.40
2675;BME280;1347;42.122;24.746;2023-01-29T01:21:31;99736.53;;;3.66;77.52
2675;BME280;1347;42.122;24.746;2023-01-29T01:23:58;99744.50;;;3.71;77.61
2675;BME280;1347;42.122;24.746;2023-01-29T01:26:25;99739.88;;;3.72;77.85
2675;BME280;1347;42.122;24.746;2023-01-29T01:28:53;99753.56;;;3.66;78.13
2675;BME280;1347;42.122;24.746;2023-01-29T01:31:40;99746.72;;;3.69;77.99
2675;BME280;1347;42.122;24.746;2023-01-29T01:34:07;99752.16;;;3.60;78.53
2675;BME280;1347;42.122;24.746;2023-01-29T01:36:34;99743.69;;;3.62;78.65
2675;BME280;1347;42.122;24.746;2023-01-29T01:39:01;99754.06;;;3.60;78.66
2675;BME280;1347;42.122;24.746;2023-01-29T01:41:29;99746.72;;;3.60;78.72
2675;BME280;1347;42.122;24.746;2023-01-29T01:43:59;99753.75;;;3.61;78.81
2675;BME280;1347;42.122;24.746;2023-01-29T01:46:27;99741.63;;;3.59;78.94
2675;BME280;1347;42.122;24.746;2023-01-29T01:48:57;99742.41;;;3.59;78.96
2675;BME280;1347;42.122;24.746;2023-01-29T01:51:28;99742.72;;;3.58;78.72
2675;BME280;1347;42.122;24.746;2023-01-29T01:54:00;99741.78;;;3.54;79.63
2675;BME280;1347;42.122;24.746;2023-01-29T01:56:31;99737.31;;;3.58;79.45
2675;BME280;1347;42.122;24.746;2023-01-29T01:59:06;99747.84;;;3.59;79.52
2675;BME280;1347;42.122;24.746;2023-01-29T02:01:35;99745.44;;;3.58;79.50
2675;BME280;1347;42.122;24.746;2023-01-29T02:04:05;99746.41;;;3.62;79.44
2675;BME280;1347;42.122;24.746;2023-01-29T02:06:51;99746.09;;;3.63;79.73
2675;BME280;1347;42.122;24.746;2023-01-29T02:09:39;99749.13;;;3.62;79.67
2675;BME280;1347;42.122;24.746;2023-01-29T02:12:10;99743.88;;;3.65;79.59
2675;BME280;1347;42.122;24.746;2023-01-29T02:14:39;99752.16;;;3.69;80.08
2675;BME280;1347;42.122;24.746;2023-01-29T02:17:09;99751.22;;;3.74;79.93
2675;BME280;1347;42.122;24.746;2023-01-29T02:19:46;99750.91;;;3.75;79.80
2675;BME280;1347;42.122;24.746;2023-01-29T02:22:26;99755.53;;;3.75;80.18
2675;BME280;1347;42.122;24.746;2023-01-29T02:25:01;99757.75;;;3.73;80.11
2675;BME280;1347;42.122;24.746;2023-01-29T02:27:44;99763.66;;;3.75;80.20
2675;BME280;1347;42.122;24.746;2023-01-29T02:30:20;99770.00;;;3.79;80.27
2675;BME280;1347;42.122;24.746;2023-01-29T02:32:54;99765.25;;;3.84;80.35
2675;BME280;1347;42.122;24.746;2023-01-29T02:35:28;99768.75;;;3.85;80.58
2675;BME280;1347;42.122;24.746;2023-01-29T02:38:07;99758.53;;;3.90;80.88
2675;BME280;1347;42.122;24.746;2023-01-29T02:40:41;99767.34;;;3.96;80.49
2675;BME280;1347;42.122;24.746;2023-01-29T02:43:19;99779.78;;;3.97;80.53
2675;BME280;1347;42.122;24.746;2023-01-29T02:45:54;99770.66;;;4.01;80.25
2675;BME280;1347;42.122;24.746;2023-01-29T02:48:30;99777.38;;;3.95;80.48
2675;BME280;1347;42.122;24.746;2023-01-29T02:51:03;99776.09;;;3.93;80.79
2675;BME280;1347;42.122;24.746;2023-01-29T02:53:35;99779.78;;;3.97;80.82
2675;BME280;1347;42.122;24.746;2023-01-29T02:56:09;99774.50;;;3.92;81.04
2675;BME280;1347;42.122;24.746;2023-01-29T02:58:41;99774.00;;;3.90;81.17
2675;BME280;1347;42.122;24.746;2023-01-29T03:01:14;99781.19;;;3.86;81.47
2675;BME280;1347;42.122;24.746;2023-01-29T03:03:44;99780.53;;;3.89;81.60
2675;BME280;1347;42.122;24.746;2023-01-29T03:06:19;99787.09;;;3.88;81.52
2675;BME280;1347;42.122;24.746;2023-01-29T03:08:51;99787.25;;;3.83;82.18
2675;BME280;1347;42.122;24.746;2023-01-29T03:11:20;99779.25;;;3.78;82.48
2675;BME280;1347;42.122;24.746;2023-01-29T03:13:50;99783.44;;;3.84;82.59
2675;BME280;1347;42.122;24.746;2023-01-29T03:16:23;99788.69;;;3.80;82.56
2675;BME280;1347;42.122;24.746;2023-01-29T03:18:55;99790.75;;;3.83;82.80
2675;BME280;1347;42.122;24.746;2023-01-29T03:21:27;99792.00;;;3.77;82.35
2675;BME280;1347;42.122;24.746;2023-01-29T03:24:14;99796.31;;;3.78;82.04
2675;BME280;1347;42.122;24.746;2023-01-29T03:27:01;99801.91;;;3.73;82.46
2675;BME280;1347;42.122;24.746;2023-01-29T03:29:48;99799.22;;;3.73;82.54
2675;BME280;1347;42.122;24.746;2023-01-29T03:32:34;99810.53;;;3.84;82.36
2675;BME280;1347;42.122;24.746;2023-01-29T03:35:04;99804.81;;;3.85;81.83
2675;BME280;1347;42.122;24.746;2023-01-29T03:37:37;99807.66;;;3.80;81.94
2675;BME280;1347;42.122;24.746;2023-01-29T03:40:06;99802.56;;;3.79;81.85
2675;BME280;1347;42.122;24.746;2023-01-29T03:42:43;99813.75;;;3.86;82.34
2675;BME280;1347;42.122;24.746;2023-01-29T03:45:20;99811.34;;;3.84;81.98
2675;BME280;1347;42.122;24.746;2023-01-29T03:47:57;99815.78;;;3.80;82.16
2675;BME280;1347;42.122;24.746;2023-01-29T03:50:34;99815.78;;;3.80;82.18
2675;BME280;1347;42.122;24.746;2023-01-29T03:53:08;99819.94;;;3.78;81.96
2675;BME280;1347;42.122;24.746;2023-01-29T03:55:42;99808.16;;;3.82;81.55
2675;BME280;1347;42.122;24.746;2023-01-29T03:58:24;99825.69;;;3.76;81.92
2675;BME280;1347;42.122;24.746;2023-01-29T04:00:57;99815.78;;;3.72;81.68
2675;BME280;1347;42.122;24.746;2023-01-29T04:03:31;99824.09;;;3.75;82.07
2675;BME280;1347;42.122;24.746;2023-01-29T04:06:04;99830.63;;;3.74;82.26
2675;BME280;1347;42.122;24.746;2023-01-29T04:08:37;99836.38;;;3.73;82.30
2675;BME280;1347;42.122;24.746;2023-01-29T04:11:10;99835.09;;;3.79;82.23
2675;BME280;1347;42.122;24.746;2023-01-29T04:13:39;99828.56;;;3.80;82.25
2675;BME280;1347;42.122;24.746;2023-01-29T04:16:09;99840.50;;;3.79;82.40
2675;BME280;1347;42.122;24.746;2023-01-29T04:18:43;99845.75;;;3.66;83.22
2675;BME280;1347;42.122;24.746;2023-01-29T04:21:11;99848.44;;;3.66;83.73
2675;BME280;1347;42.122;24.746;2023-01-29T04:23:38;99844.63;;;3.67;83.62
2675;BME280;1347;42.122;24.746;2023-01-29T04:26:23;99845.75;;;3.66;84.07
2675;BME280;1347;42.122;24.746;2023-01-29T04:29:12;99850.22;;;3.71;84.01
2675;BME280;1347;42.122;24.746;2023-01-29T04:31:46;99854.34;;;3.60;84.35
2675;BME280;1347;42.122;24.746;2023-01-29T04:34:22;99852.63;;;3.73;84.53
2675;BME280;1347;42.122;24.746;2023-01-29T04:37:00;99852.31;;;3.74;84.20
2675;BME280;1347;42.122;24.746;2023-01-29T04:39:39;99851.22;;;3.75;83.91
2675;BME280;1347;42.122;24.746;2023-01-29T04:42:12;99853.25;;;3.69;84.33
2675;BME280;1347;42.122;24.746;2023-01-29T04:44:46;99861.56;;;3.73;84.53
2675;BME280;1347;42.122;24.746;2023-01-29T04:47:20;99865.56;;;3.76;84.63
2675;BME280;1347;42.122;24.746;2023-01-29T04:50:00;99859.16;;;3.72;84.63
2675;BME280;1347;42.122;24.746;2023-01-29T04:52:33;99859.66;;;3.74;84.72
2675;BME280;1347;42.122;24.746;2023-01-29T04:55:06;99863.00;;;3.79;84.99
2675;BME280;1347;42.122;24.746;2023-01-29T04:57:40;99873.22;;;3.91;85.20
2675;BME280;1347;42.122;24.746;2023-01-29T05:00:13;99873.72;;;3.84;85.29
2675;BME280;1347;42.122;24.746;2023-01-29T05:02:43;99866.50;;;3.80;86.81
2675;BME280;1347;42.122;24.746;2023-01-29T05:05:15;99871.94;;;3.80;87.03
2675;BME280;1347;42.122;24.746;2023-01-29T05:07:45;99876.53;;;3.70;88.11
2675;BME280;1347;42.122;24.746;2023-01-29T05:10:14;99873.50;;;3.72;88.54
2675;BME280;1347;42.122;24.746;2023-01-29T05:12:46;99885.19;;;3.81;88.51
2675;BME280;1347;42.122;24.746;2023-01-29T05:15:18;99879.25;;;3.79;87.95
2675;BME280;1347;42.122;24.746;2023-01-29T05:17:45;99880.25;;;3.83;88.75
2675;BME280;1347;42.122;24.746;2023-01-29T05:20:14;99884.69;;;3.79;88.77
2675;BME280;1347;42.122;24.746;2023-01-29T05:22:41;99889.97;;;3.76;88.73
2675;BME280;1347;42.122;24.746;2023-01-29T05:25:20;99886.91;;;3.77;88.55
2675;BME280;1347;42.122;24.746;2023-01-29T05:27:49;99881.34;;;3.74;88.47
2675;BME280;1347;42.122;24.746;2023-01-29T05:30:32;99886.75;;;3.74;88.97
2675;BME280;1347;42.122;24.746;2023-01-29T05:32:59;99888.66;;;3.64;89.17
2675;BME280;1347;42.122;24.746;2023-01-29T05:35:28;99886.25;;;3.63;89.20
2675;BME280;1347;42.122;24.746;2023-01-29T05:37:58;99893.09;;;3.69;88.64
2675;BME280;1347;42.122;24.746;2023-01-29T05:40:25;99894.22;;;3.68;88.32
2675;BME280;1347;42.122;24.746;2023-01-29T05:42:52;99896.13;;;3.67;88.13
2675;BME280;1347;42.122;24.746;2023-01-29T05:45:19;99898.00;;;3.58;88.10
2675;BME280;1347;42.122;24.746;2023-01-29T05:47:46;99897.09;;;3.63;88.52
2675;BME280;1347;42.122;24.746;2023-01-29T05:50:14;99900.44;;;3.68;88.54
2675;BME280;1347;42.122;24.746;2023-01-29T05:52:43;99897.41;;;3.61;88.12
2675;BME280;1347;42.122;24.746;2023-01-29T05:55:09;99909.69;;;3.67;88.37
2675;BME280;1347;42.122;24.746;2023-01-29T05:57:38;99905.03;;;3.59;88.34
2675;BME280;1347;42.122;24.746;2023-01-29T06:00:07;99913.66;;;3.61;87.68
2675;BME280;1347;42.122;24.746;2023-01-29T06:02:34;99915.88;;;3.59;87.59
2675;BME280;1347;42.122;24.746;2023-01-29T06:05:01;99919.69;;;3.58;87.95
2675;BME280;1347;42.122;24.746;2023-01-29T06:07:28;99919.72;;;3.67;88.06
2675;BME280;1347;42.122;24.746;2023-01-29T06:09:56;99923.91;;;3.73;87.08
2675;BME280;1347;42.122;24.746;2023-01-29T06:12:23;99922.44;;;3.67;87.11
2675;BME280;1347;42.122;24.746;2023-01-29T06:14:52;99926.44;;;3.69;87.27
2675;BME280;1347;42.122;24.746;2023-01-29T06:17:18;99930.56;;;3.67;87.37
2675;BME280;1347;42.122;24.746;2023-01-29T06:19:45;99933.66;;;3.74;88.17
2675;BME280;1347;42.122;24.746;2023-01-29T06:22:12;99933.34;;;3.76;88.23
2675;BME280;1347;42.122;24.746;2023-01-29T06:24:39;99934.75;;;3.73;88.26
2675;BME280;1347;42.122;24.746;2023-01-29T06:27:07;99938.09;;;3.70;88.85
2675;BME280;1347;42.122;24.746;2023-01-29T06:29:34;99946.44;;;3.82;89.16
2675;BME280;1347;42.122;24.746;2023-01-29T06:32:01;99948.97;;;3.87;88.98
2675;BME280;1347;42.122;24.746;2023-01-29T06:34:28;99953.94;;;3.85;89.20
2675;BME280;1347;42.122;24.746;2023-01-29T06:36:55;99954.22;;;3.75;88.32
2675;BME280;1347;42.122;24.746;2023-01-29T06:39:22;99954.06;;;3.80;87.67
2675;BME280;1347;42.122;24.746;2023-01-29T06:41:48;99954.91;;;3.89;86.44
2675;BME280;1347;42.122;24.746;2023-01-29T06:44:17;99963.22;;;3.93;85.93
2675;BME280;1347;42.122;24.746;2023-01-29T06:46:44;99966.56;;;3.98;85.53
2675;BME280;1347;42.122;24.746;2023-01-29T06:49:11;99969.47;;;4.11;84.85
2675;BME280;1347;42.122;24.746;2023-01-29T06:51:37;99971.56;;;4.05;83.63
2675;BME280;1347;42.122;24.746;2023-01-29T06:54:04;99970.09;;;4.07;83.51
2675;BME280;1347;42.122;24.746;2023-01-29T06:56:33;99972.06;;;4.16;83.65
2675;BME280;1347;42.122;24.746;2023-01-29T06:59:03;99977.50;;;4.24;83.06
2675;BME280;1347;42.122;24.746;2023-01-29T07:01:31;99977.03;;;4.31;82.47
2675;BME280;1347;42.122;24.746;2023-01-29T07:03:58;99983.13;;;4.36;82.06
2675;BME280;1347;42.122;24.746;2023-01-29T07:06:29;99979.31;;;4.37;82.98
2675;BME280;1347;42.122;24.746;2023-01-29T07:08:56;99979.91;;;4.34;82.76
2675;BME280;1347;42.122;24.746;2023-01-29T07:11:23;99983.13;;;4.45;82.77
2675;BME280;1347;42.122;24.746;2023-01-29T07:13:49;99982.00;;;4.37;82.55
2675;BME280;1347;42.122;24.746;2023-01-29T07:16:16;99989.38;;;4.54;83.55
2675;BME280;1347;42.122;24.746;2023-01-29T07:18:45;99988.44;;;4.67;83.12
2675;BME280;1347;42.122;24.746;2023-01-29T07:21:12;99996.41;;;4.72;81.90
2675;BME280;1347;42.122;24.746;2023-01-29T07:23:38;99995.91;;;4.62;82.39
2675;BME280;1347;42.122;24.746;2023-01-29T07:26:05;100004.25;;;4.65;83.33
2675;BME280;1347;42.122;24.746;2023-01-29T07:28:35;100006.78;;;4.62;83.49
2675;BME280;1347;42.122;24.746;2023-01-29T07:31:03;100002.81;;;4.68;84.49
2675;BME280;1347;42.122;24.746;2023-01-29T07:33:30;99997.22;;;4.64;85.00
2675;BME280;1347;42.122;24.746;2023-01-29T07:35:59;99998.00;;;4.73;84.56
2675;BME280;1347;42.122;24.746;2023-01-29T07:38:26;99993.22;;;4.88;83.66
2675;BME280;1347;42.122;24.746;2023-01-29T07:40:52;99999.16;;;4.98;84.00
2675;BME280;1347;42.122;24.746;2023-01-29T07:43:19;99997.53;;;4.97;83.16
2675;BME280;1347;42.122;24.746;2023-01-29T07:45:49;99996.56;;;5.02;83.02
2675;BME280;1347;42.122;24.746;2023-01-29T07:48:16;99997.22;;;5.07;83.63
2675;BME280;1347;42.122;24.746;2023-01-29T07:50:43;100003.91;;;5.27;82.69
2675;BME280;1347;42.122;24.746;2023-01-29T07:53:13;100008.22;;;5.28;82.48
2675;BME280;1347;42.122;24.746;2023-01-29T07:55:42;100006.28;;;5.20;83.43
2675;BME280;1347;42.122;24.746;2023-01-29T07:58:09;100013.47;;;5.33;83.51
2675;BME280;1347;42.122;24.746;2023-01-29T08:00:36;100009.91;;;5.50;83.32
2675;BME280;1347;42.122;24.746;2023-01-29T08:03:05;100008.13;;;5.63;82.48
2675;BME280;1347;42.122;24.746;2023-01-29T08:05:32;100009.19;;;5.96;82.13
2675;BME280;1347;42.122;24.746;2023-01-29T08:08:00;100016.47;;;6.42;80.30
2675;BME280;1347;42.122;24.746;2023-01-29T08:10:28;100016.78;;;6.91;77.37
2675;BME280;1347;42.122;24.746;2023-01-29T08:12:55;100019.00;;;7.30;76.28
2675;BME280;1347;42.122;24.746;2023-01-29T08:15:23;100020.53;;;7.97;74.09
2675;BME280;1347;42.122;24.746;2023-01-29T08:17:51;100023.09;;;9.03;70.35
2675;BME280;1347;42.122;24.746;2023-01-29T08:20:18;100019.38;;;9.67;67.68
2675;BME280;1347;42.122;24.746;2023-01-29T08:22:46;100023.59;;;9.21;67.78
2675;BME280;1347;42.122;24.746;2023-01-29T08:25:14;100028.94;;;8.77;69.06
2675;BME280;1347;42.122;24.746;2023-01-29T08:27:42;100032.25;;;8.83;70.13
2675;BME280;1347;42.122;24.746;2023-01-29T08:30:10;100031.84;;;8.32;70.57
2675;BME280;1347;42.122;24.746;2023-01-29T08:32:37;100033.06;;;8.10;72.88
2675;BME280;1347;42.122;24.746;2023-01-29T08:35:05;100033.72;;;7.83;73.11
2675;BME280;1347;42.122;24.746;2023-01-29T08:37:32;100037.66;;;7.73;72.96
2675;BME280;1347;42.122;24.746;2023-01-29T08:40:01;100041.22;;;7.53;73.07
2675;BME280;1347;42.122;24.746;2023-01-29T08:42:30;100035.38;;;7.30;75.55
2675;BME280;1347;42.122;24.746;2023-01-29T08:44:58;100043.03;;;6.95;77.09
2675;BME280;1347;42.122;24.746;2023-01-29T08:47:25;100041.81;;;6.63;78.40
2675;BME280;1347;42.122;24.746;2023-01-29T08:49:52;100052.28;;;6.53;79.03
2675;BME280;1347;42.122;24.746;2023-01-29T08:52:19;100045.59;;;6.50;79.21
2675;BME280;1347;42.122;24.746;2023-01-29T08:54:46;100047.19;;;6.51;79.11
2675;BME280;1347;42.122;24.746;2023-01-29T08:57:13;100054.88;;;6.49;79.45
2675;BME280;1347;42.122;24.746;2023-01-29T08:59:40;100046.28;;;6.39;79.32
2675;BME280;1347;42.122;24.746;2023-01-29T09:02:10;100042.94;;;6.33;79.90
2675;BME280;1347;42.122;24.746;2023-01-29T09:04:37;100040.63;;;6.14;80.62
2675;BME280;1347;42.122;24.746;2023-01-29T09:07:03;100035.44;;;6.30;80.06
2675;BME280;1347;42.122;24.746;2023-01-29T09:09:31;100039.66;;;6.48;79.82
2675;BME280;1347;42.122;24.746;2023-01-29T09:11:57;100046.25;;;6.47;79.70
2675;BME280;1347;42.122;24.746;2023-01-29T09:14:24;100047.22;;;6.43;79.63
2675;BME280;1347;42.122;24.746;2023-01-29T09:16:52;100038.94;;;6.39;79.54
2675;BME280;1347;42.122;24.746;2023-01-29T09:19:20;100041.81;;;6.34;80.19
2675;BME280;1347;42.122;24.746;2023-01-29T09:21:47;100039.84;;;6.43;79.34
2675;BME280;1347;42.122;24.746;2023-01-29T09:24:14;100029.75;;;6.44;79.84
2675;BME280;1347;42.122;24.746;2023-01-29T09:26:41;100036.94;;;6.48;79.79
2675;BME280;1347;42.122;24.746;2023-01-29T09:29:09;100044.31;;;6.48;79.54
2675;BME280;1347;42.122;24.746;2023-01-29T09:31:36;100039.25;;;6.38;79.57
2675;BME280;1347;42.122;24.746;2023-01-29T09:34:03;100046.56;;;6.16;80.18
2675;BME280;1347;42.122;24.746;2023-01-29T09:36:34;100043.19;;;6.11;80.42
2675;BME280;1347;42.122;24.746;2023-01-29T09:39:04;100031.56;;;6.02;80.79
2675;BME280;1347;42.122;24.746;2023-01-29T09:41:41;100040.47;;;6.11;81.17
2675;BME280;1347;42.122;24.746;2023-01-29T09:44:15;100034.97;;;6.28;80.51
2675;BME280;1347;42.122;24.746;2023-01-29T09:46:46;100039.19;;;6.17;80.44
2675;BME280;1347;42.122;24.746;2023-01-29T09:49:21;100022.06;;;6.16;79.89
2675;BME280;1347;42.122;24.746;2023-01-29T09:51:56;100024.81;;;6.08;80.21
2675;BME280;1347;42.122;24.746;2023-01-29T09:54:27;100016.13;;;6.14;80.17
2675;BME280;1347;42.122;24.746;2023-01-29T09:56:56;100018.16;;;6.26;79.70
2675;BME280;1347;42.122;24.746;2023-01-29T09:59:25;100012.88;;;6.21;79.15
2675;BME280;1347;42.122;24.746;2023-01-29T10:02:00;100012.56;;;6.22;79.44
2675;BME280;1347;42.122;24.746;2023-01-29T10:04:46;100016.41;;;6.21;78.75
2675;BME280;1347;42.122;24.746;2023-01-29T10:07:35;100019.38;;;6.37;79.35
2675;BME280;1347;42.122;24.746;2023-01-29T10:10:16;100012.03;;;6.38;78.96
2675;BME280;1347;42.122;24.746;2023-01-29T10:13:00;100014.31;;;6.27;78.89
2675;BME280;1347;42.122;24.746;2023-01-29T10:15:37;100004.44;;;6.14;79.14
2675;BME280;1347;42.122;24.746;2023-01-29T10:18:35;100001.09;;;6.17;79.35
2675;BME280;1347;42.122;24.746;2023-01-29T10:21:14;100008.97;;;6.39;78.71
2675;BME280;1347;42.122;24.746;2023-01-29T10:23:50;99999.16;;;6.47;78.65
2675;BME280;1347;42.122;24.746;2023-01-29T10:26:23;100000.22;;;6.75;77.80
2675;BME280;1347;42.122;24.746;2023-01-29T10:28:54;99995.84;;;6.83;77.01
2675;BME280;1347;42.122;24.746;2023-01-29T10:31:27;99991.25;;;6.95;76.60
2675;BME280;1347;42.122;24.746;2023-01-29T10:33:59;99988.44;;;7.04;75.32
2675;BME280;1347;42.122;24.746;2023-01-29T10:36:33;99989.34;;;7.29;75.81
2675;BME280;1347;42.122;24.746;2023-01-29T10:39:03;99974.88;;;7.49;74.17
2675;BME280;1347;42.122;24.746;2023-01-29T10:41:43;99980.16;;;7.91;73.01
2675;BME280;1347;42.122;24.746;2023-01-29T10:44:23;99971.50;;;7.89;71.20
2675;BME280;1347;42.122;24.746;2023-01-29T10:47:04;99972.31;;;8.13;70.88
2675;BME280;1347;42.122;24.746;2023-01-29T10:49:56;99967.50;;;7.74;70.87
2675;BME280;1347;42.122;24.746;2023-01-29T10:52:35;99958.66;;;8.01;69.80
2675;BME280;1347;42.122;24.746;2023-01-29T10:55:17;99956.50;;;8.43;68.79
2675;BME280;1347;42.122;24.746;2023-01-29T10:57:54;99963.75;;;8.64;67.91
2675;BME280;1347;42.122;24.746;2023-01-29T11:00:27;99958.81;;;8.69;66.35
2675;BME280;1347;42.122;24.746;2023-01-29T11:03:10;99957.00;;;8.73;66.98
2675;BME280;1347;42.122;24.746;2023-01-29T11:05:42;99957.91;;;9.05;65.99
2675;BME280;1347;42.122;24.746;2023-01-29T11:08:15;99947.97;;;9.13;64.97
2675;BME280;1347;42.122;24.746;2023-01-29T11:10:51;99952.19;;;9.10;64.70
2675;BME280;1347;42.122;24.746;2023-01-29T11:13:25;99945.50;;;8.96;65.97
2675;BME280;1347;42.122;24.746;2023-01-29T11:15:54;99956.25;;;9.44;64.32
2675;BME280;1347;42.122;24.746;2023-01-29T11:18:21;99949.19;;;8.88;65.41
2675;BME280;1347;42.122;24.746;2023-01-29T11:20:59;99951.19;;;9.31;64.67
2675;BME280;1347;42.122;24.746;2023-01-29T11:23:29;99949.25;;;9.03;64.42
2675;BME280;1347;42.122;24.746;2023-01-29T11:25:59;99943.34;;;9.60;63.39
2675;BME280;1347;42.122;24.746;2023-01-29T11:28:35;99937.88;;;9.45;62.25
2675;BME280;1347;42.122;24.746;2023-01-29T11:31:03;99934.94;;;9.22;62.41
2675;BME280;1347;42.122;24.746;2023-01-29T11:33:30;99921.63;;;9.36;62.43
2675;BME280;1347;42.122;24.746;2023-01-29T11:35:57;99916.25;;;9.40;61.76
2675;BME280;1347;42.122;24.746;2023-01-29T11:38:25;99922.25;;;9.61;62.36
2675;BME280;1347;42.122;24.746;2023-01-29T11:40:53;99916.69;;;9.42;62.27
2675;BME280;1347;42.122;24.746;2023-01-29T11:43:32;99906.88;;;9.25;62.42
2675;BME280;1347;42.122;24.746;2023-01-29T11:46:00;99919.56;;;9.17;62.75
2675;BME280;1347;42.122;24.746;2023-01-29T11:48:38;99904.66;;;9.31;62.90
2675;BME280;1347;42.122;24.746;2023-01-29T11:51:07;99911.84;;;9.67;61.78
2675;BME280;1347;42.122;24.746;2023-01-29T11:53:38;99911.28;;;9.92;61.36
2675;BME280;1347;42.122;24.746;2023-01-29T11:56:16;99912.69;;;10.02;59.92
2675;BME280;1347;42.122;24.746;2023-01-29T11:58:47;99900.38;;;10.12;60.19
2675;BME280;1347;42.122;24.746;2023-01-29T12:01:17;99902.88;;;10.52;59.50
2675;BME280;1347;42.122;24.746;2023-01-29T12:03:51;99901.63;;;10.49;58.86
2675;BME280;1347;42.122;24.746;2023-01-29T12:06:21;99902.50;;;10.18;58.50
2675;BME280;1347;42.122;24.746;2023-01-29T12:08:54;99894.13;;;10.11;59.16
2675;BME280;1347;42.122;24.746;2023-01-29T12:11:28;99894.25;;;9.83;59.31
2675;BME280;1347;42.122;24.746;2023-01-29T12:13:58;99890.75;;;9.36;59.90
2675;BME280;1347;42.122;24.746;2023-01-29T12:16:28;99887.97;;;8.76;61.62
2675;BME280;1347;42.122;24.746;2023-01-29T12:19:03;99884.66;;;8.83;62.27
2675;BME280;1347;42.122;24.746;2023-01-29T12:21:35;99877.78;;;8.89;61.86
2675;BME280;1347;42.122;24.746;2023-01-29T12:24:14;99877.72;;;9.01;62.16
2675;BME280;1347;42.122;24.746;2023-01-29T12:26:46;99874.22;;;9.32;60.40
2675;BME280;1347;42.122;24.746;2023-01-29T12:29:32;99879.63;;;9.44;60.71
2675;BME280;1347;42.122;24.746;2023-01-29T12:32:11;99873.34;;;9.28;59.92
2675;BME280;1347;42.122;24.746;2023-01-29T12:34:48;99871.84;;;9.15;60.59
2675;BME280;1347;42.122;24.746;2023-01-29T12:37:20;99864.09;;;9.33;60.69
2675;BME280;1347;42.122;24.746;2023-01-29T12:39:48;99870.53;;;9.56;59.74
2675;BME280;1347;42.122;24.746;2023-01-29T12:42:18;99860.56;;;9.32;59.64
2675;BME280;1347;42.122;24.746;2023-01-29T12:44:51;99863.31;;;8.89;60.38
2675;BME280;1347;42.122;24.746;2023-01-29T12:47:21;99867.31;;;8.63;61.04
2675;BME280;1347;42.122;24.746;2023-01-29T12:49:54;99866.84;;;8.61;61.07
2675;BME280;1347;42.122;24.746;2023-01-29T12:52:33;99871.41;;;8.57;61.89
2675;BME280;1347;42.122;24.746;2023-01-29T12:55:07;99862.72;;;8.27;62.40
2675;BME280;1347;42.122;24.746;2023-01-29T12:57:40;99868.91;;;8.00;62.63
2675;BME280;1347;42.122;24.746;2023-01-29T13:00:12;99861.53;;;8.00;62.97
2675;BME280;1347;42.122;24.746;2023-01-29T13:02:46;99869.72;;;7.88;63.59
2675;BME280;1347;42.122;24.746;2023-01-29T13:05:19;99870.06;;;7.99;63.95
2675;BME280;1347;42.122;24.746;2023-01-29T13:07:50;99864.84;;;7.94;64.16
2675;BME280;1347;42.122;24.746;2023-01-29T13:10:23;99863.13;;;8.01;63.44
2675;BME280;1347;42.122;24.746;2023-01-29T13:12:58;99861.06;;;8.10;63.73
2675;BME280;1347;42.122;24.746;2023-01-29T13:15:30;99867.56;;;7.94;63.99
2675;BME280;1347;42.122;24.746;2023-01-29T13:18:14;99871.66;;;8.00;63.82
2675;BME280;1347;42.122;24.746;2023-01-29T13:20:47;99870.41;;;7.85;63.69
2675;BME280;1347;42.122;24.746;2023-01-29T13:23:20;99870.66;;;7.80;64.11
2675;BME280;1347;42.122;24.746;2023-01-29T13:25:49;99868.03;;;7.84;63.97
2675;BME280;1347;42.122;24.746;2023-01-29T13:28:20;99863.59;;;7.79;63.51
2675;BME280;1347;42.122;24.746;2023-01-29T13:31:11;99859.59;;;7.64;63.57
2675;BME280;1347;42.122;24.746;2023-01-29T13:33:40;99870.44;;;7.61;63.67
2675;BME280;1347;42.122;24.746;2023-01-29T13:36:14;99861.91;;;7.50;63.78
2675;BME280;1347;42.122;24.746;2023-01-29T13:38:43;99865.28;;;7.47;63.92
2675;BME280;1347;42.122;24.746;2023-01-29T13:41:10;99865.84;;;7.28;65.72
2675;BME280;1347;42.122;24.746;2023-01-29T13:43:39;99865.28;;;7.35;65.69